Airfield :
LOGIN :

Register | Disclaimer

   EN    FR    IT 

 










Legend :    VFR   Marginal VFR   IFR   Intensive IFR   Very Intensive IFR
Visi :
Ceiling :
>= 8 km
>= 3000ft
5 to 8 km
1000 to 3000 ft
1500m to 5 km
500 to 1000 ft
800 to 1500m
200 to 500 ft
< 800m
< 200 ft
Symbols :   Thunderstorms  Fog  Heavy snow  Heavy precipitations  Wind > 20 kt
SIGMETs :     Misc.  Thunderstorms  Icing  Turbulence  Mountain Waves  Volcanic Ashes






- Airport Elevation : 3 ft
- IATA code : LWR


EHLW - Leuuwarden Air Base

CURRENT METAR :
  • 192325Z AUTO 21020G31KT 170V240 3700 -UP SCT008 SCT009 BKN013 SCT015CB 07/06 Q0998 GRN

EXPIRED METARs :
  • 192316Z AUTO 21019KT 170V230 7000 -SHUP SCT008 SCT009 BKN011 FEW015CB 07/06 Q0998 GRN
  • 192255Z AUTO 20017G28KT 160V230 9000 -UP SCT007 BKN008 BKN013 07/06 Q0998 REDZUP GRN
  • 192242Z AUTO 20016KT 170V230 5000 -UP FEW007 SCT008 BKN010 07/06 Q0998 GRN
  • 192234Z AUTO 21017KT 170V230 5000 -RADZ SCT007 SCT008 OVC014 07/06 Q0998 GRN
  • 192225Z AUTO 20017KT 170V230 6000 +DZ FEW007 SCT013 OVC015 07/06 Q0999 GRN
  • 192209Z AUTO 20016KT 160V230 9999 -DZ FEW011 BKN013 OVC016 07/06 Q0999 GRN
  • 192155Z AUTO 21019KT 180V240 9999 -RA FEW009 OVC013 08/07 Q0999 RERA REDZ GRN
  • 192147Z AUTO 22022KT 9999 OVC014 08/07 Q0999 GRN
  • 192142Z AUTO 22022KT 9999 FEW009 OVC015 08/07 Q0999 WHT
  • 192131Z AUTO 22021KT 180V240 9000 DZ FEW011 BKN015 OVC018 08/07 Q0999 WHT
  • 192055Z AUTO 22021KT 180V240 9999 DZ SCT007 BKN008 OVC010 08/07 Q1000 GRN

TAF TAF EHLW
Valid from the 19 at 22:00 until the 20 at 10:00 UTC


192114Z 1922/2010 21020G35KT 9999 FEW010 SCT015 BKN025
TEMPO 1921/1924 4500 -RADZ FEW007 BKN010 OVC012
TEMPO 2000/2008 FEW007 SCT012 BKN015



MET'MAP, your aeronautical weather chart ! - Copyright ORBIFLY December 2007 - Disclaimer

ORBIFLY MET'MAP TEAM :

Programming & Development : Alexandra Zaïnal
Concept & original design : Baudouin d'Aumeries
Assistance for programming : Marc-Olivier Méhu
Technical & hardware support : Manuel Goepfert

Contact : metmap@orbifly.com




SOURCES & CREDITS :

   NOAA